Spirit Falls, Wisconsin
Current Conditions -  °F | °C
As of 11:55 PM on Thursday 30 Oct 2014 (Local Time) from KTKV Reporting Station
Overcast Overcast  
Wind Chill: 21°   Ceiling: 4600
Heat Index: 31°   Visibility: 7mi
Dew Point: 28°   Wind: 13mph
Humidity: 86%   Direction: 300°WNW
Pressure: 30.09"   Gusts: 24mph
Location:  45.6083°N, 89.9711°W
Report Text: KTKV 310455Z AUTO 30011G21KT 7SM SCT016 BKN046 OVC050 00/M02 A3009 RMK AO2 T10051025
Loading
Personal Weather Stations






























Interactive Weather Map
Tropical Storm Tracking
New forecast layout! Learn more

10-Day Weather Forecast

Advertisements
Track Severe Weather on mobile